Time;durP1;ratioP1;P1;durP2;ratioP2;P2;SDS_P1;SDS_P2;PMS_P1;PMS_P2;Temp;Humidity;BMP_temperature;BMP_pressure;BME280_temperature;BME280_humidity;BME280_pressure;Samples;Min_cycle;Max_cycle;Signal;HPM_P1;HPM_P2
2021/12/31 00:02:13;;;;;;;5.50;2.80;;;;;;;4.83;77.77;93538.28;2074992;69;20178;-69
2021/12/31 00:04:39;;;;;;;5.15;2.22;;;;;;;4.47;80.45;93546.69;2074849;69;20159;-68
2021/12/31 00:07:04;;;;;;;4.40;2.30;;;;;;;4.70;79.17;93533.59;2075011;69;20213;-71
2021/12/31 00:09:30;;;;;;;4.28;2.10;;;;;;;4.53;78.28;93534.06;2075265;69;20147;-73
2021/12/31 00:11:56;;;;;;;15.55;4.28;;;;;;;4.44;79.98;93533.84;2075142;69;20179;-77
2021/12/31 00:14:22;;;;;;;6.38;2.80;;;;;;;4.46;79.78;93534.06;2075075;69;20166;-69
2021/12/31 00:16:49;;;;;;;8.63;2.90;;;;;;;4.58;77.89;93538.00;2075299;69;20152;-71
2021/12/31 00:19:15;;;;;;;6.35;2.90;;;;;;;4.65;77.74;93530.97;2074780;69;20151;-72
2021/12/31 00:21:47;;;;;;;4.22;2.40;;;;;;;4.64;77.61;93526.69;2074780;69;20164;-68
2021/12/31 00:24:13;;;;;;;31.98;6.40;;;;;;;4.33;78.23;93532.88;2071725;69;20637;-68
2021/12/31 00:26:39;;;;;;;14.35;4.22;;;;;;;4.56;77.75;93535.78;2075264;69;20155;-69
2021/12/31 00:29:05;;;;;;;10.98;3.47;;;;;;;4.58;77.08;93538.00;2075047;69;20667;-72
2021/12/31 00:31:34;;;;;;;8.07;3.20;;;;;;;4.61;77.19;93530.59;2071647;69;20136;-70
2021/12/31 00:34:00;;;;;;;5.47;2.55;;;;;;;4.62;77.02;93535.59;2074978;69;20180;-70
2021/12/31 00:36:45;;;;;;;8.25;3.10;;;;;;;4.27;78.43;93534.34;2075125;69;20186;-69
2021/12/31 00:39:14;;;;;;;6.57;3.15;;;;;;;4.46;77.45;93537.59;2074991;69;20162;-70
2021/12/31 00:41:40;;;;;;;4.80;2.40;;;;;;;4.53;76.87;93528.50;2074853;69;20200;-69
2021/12/31 00:44:06;;;;;;;4.15;2.20;;;;;;;4.51;77.14;93528.31;2074947;69;20150;-69
2021/12/31 00:46:33;;;;;;;5.78;2.67;;;;;;;4.37;78.41;93526.22;2074409;69;20159;-68
2021/12/31 00:49:02;;;;;;;13.80;3.50;;;;;;;4.33;77.36;93527.31;2074386;69;20136;-72
2021/12/31 00:51:28;;;;;;;7.63;2.95;;;;;;;4.50;76.98;93528.88;2074859;69;20227;-76
2021/12/31 00:53:53;;;;;;;4.20;2.13;;;;;;;4.48;76.74;93518.25;2074558;69;20208;-78
2021/12/31 00:56:19;;;;;;;7.68;2.78;;;;;;;4.30;77.85;93531.19;2071203;69;20148;-71
2021/12/31 00:58:46;;;;;;;8.60;2.70;;;;;;;4.30;77.50;93533.22;2074279;69;20239;-74
2021/12/31 01:01:17;;;;;;;4.43;2.80;;;;;;;4.08;79.20;93529.06;2074127;69;20168;-73
2021/12/31 01:03:43;;;;;;;7.53;2.83;;;;;;;4.47;77.55;93529.97;2074295;69;20151;-70
2021/12/31 01:06:08;;;;;;;6.25;2.65;;;;;;;4.43;76.71;93535.91;2074076;69;20163;-69
2021/12/31 01:08:34;;;;;;;4.43;2.63;;;;;;;4.36;77.92;93542.19;2074824;69;20167;-70
2021/12/31 01:11:00;;;;;;;6.55;2.50;;;;;;;4.36;77.44;93545.00;2074784;69;20147;-72
2021/12/31 01:13:34;;;;;;;5.47;1.70;;;;;;;4.39;77.29;93549.44;2074453;69;20893;-73
2021/12/31 01:16:02;;;;;;;3.38;1.65;;;;;;;4.31;77.25;93540.31;2074498;69;20148;-72
2021/12/31 01:19:45;;;;;;;5.13;1.92;;;;;;;4.31;76.67;93551.47;2074130;69;20179;-74
2021/12/31 01:21:17;;;;;;;4.53;1.90;;;;;;;4.38;77.07;93550.75;2074150;69;20175;-70
2021/12/31 01:23:42;;;;;;;9.25;2.75;;;;;;;4.08;77.39;93554.88;2074554;69;20329;-69
2021/12/31 01:26:08;;;;;;;7.50;3.25;;;;;;;4.16;77.64;93554.91;2074271;69;20136;-70
2021/12/31 01:28:36;;;;;;;11.35;3.70;;;;;;;4.21;76.75;93554.00;2074845;69;20152;-78
2021/12/31 01:31:02;;;;;;;12.38;3.70;;;;;;;4.19;76.25;93553.81;2074231;69;20246;-75
2021/12/31 01:33:28;;;;;;;11.88;2.92;;;;;;;4.19;75.96;93559.38;2074354;69;20583;-80
2021/12/31 01:35:54;;;;;;;4.53;1.90;;;;;;;4.18;77.38;93560.69;2073784;69;20150;-71
2021/12/31 01:38:20;;;;;;;4.85;1.90;;;;;;;4.05;76.92;93567.09;2074514;69;20233;-70
2021/12/31 01:40:45;;;;;;;3.58;1.90;;;;;;;4.08;77.15;93568.81;2074528;69;20968;-69
2021/12/31 01:43:12;;;;;;;5.65;2.13;;;;;;;4.14;76.62;93554.72;2074495;69;20243;-70
2021/12/31 01:45:44;;;;;;;8.00;2.88;;;;;;;3.99;78.11;93569.31;2074531;69;20151;-70
2021/12/31 01:48:23;;;;;;;9.18;2.60;;;;;;;3.99;78.44;93577.66;2074725;69;20282;-72
2021/12/31 01:50:52;;;;;;;3.50;1.60;;;;;;;4.02;77.19;93573.75;2071407;69;20148;-69
2021/12/31 01:53:22;;;;;;;2.88;1.33;;;;;;;4.13;77.46;93574.78;2074418;69;20193;-73
2021/12/31 01:55:49;;;;;;;5.90;2.40;;;;;;;3.97;77.30;93580.22;2070598;69;20164;-68
2021/12/31 01:58:18;;;;;;;7.60;2.88;;;;;;;3.92;76.74;93580.38;2074453;69;20542;-69
2021/12/31 02:00:44;;;;;;;5.10;2.83;;;;;;;3.83;76.30;93573.25;2074248;69;20284;-72
2021/12/31 02:03:11;;;;;;;5.57;2.53;;;;;;;3.86;76.25;93572.19;2071260;69;20625;-68
2021/12/31 02:05:38;;;;;;;3.53;2.10;;;;;;;3.89;76.27;93581.47;2074655;69;20148;-70
2021/12/31 02:08:05;;;;;;;6.00;1.90;;;;;;;3.78;76.16;93583.25;2074486;69;20594;-74
2021/12/31 02:10:30;;;;;;;21.83;6.75;;;;;;;3.78;76.93;93593.66;2074453;69;20144;-76
2021/12/31 02:12:57;;;;;;;4.50;2.50;;;;;;;3.82;76.47;93594.81;2075738;69;20135;-73
2021/12/31 02:15:24;;;;;;;6.95;2.53;;;;;;;3.76;76.07;93590.69;2075496;69;20218;-68
2021/12/31 02:17:50;;;;;;;6.13;2.78;;;;;;;3.59;76.30;93585.53;2075560;69;20262;-68
2021/12/31 02:20:19;;;;;;;5.22;3.40;;;;;;;3.61;77.65;93610.03;2075550;69;20148;-68
2021/12/31 02:23:05;;;;;;;6.22;3.65;;;;;;;3.46;78.24;93597.47;2075394;69;20525;-68
2021/12/31 02:25:31;;;;;;;4.43;2.80;;;;;;;3.61;77.80;93591.28;2071594;69;20566;-69
2021/12/31 02:27:57;;;;;;;6.22;4.38;;;;;;;2.98;79.27;93607.19;2075341;69;20139;-68
2021/12/31 02:30:23;;;;;;;7.90;4.18;;;;;;;3.39;78.27;93602.97;2075798;69;20553;-70
2021/12/31 02:32:49;;;;;;;5.47;3.65;;;;;;;3.54;77.13;93598.28;2075420;69;20143;-70
2021/12/31 02:35:15;;;;;;;9.13;3.97;;;;;;;3.13;78.98;93598.28;2075314;69;20163;-68
2021/12/31 02:37:44;;;;;;;8.73;3.72;;;;;;;3.35;77.96;93613.72;2075919;69;20155;-68
2021/12/31 02:40:13;;;;;;;6.78;3.25;;;;;;;3.36;77.92;93607.59;2075808;69;20148;-68
2021/12/31 02:42:39;;;;;;;4.90;2.95;;;;;;;3.35;78.18;93603.31;2075470;69;20193;-68
2021/12/31 02:45:07;;;;;;;7.57;3.30;;;;;;;3.20;79.06;93603.88;2075834;69;20170;-73
2021/12/31 02:47:34;;;;;;;6.22;3.25;;;;;;;3.26;78.03;93603.78;2075822;69;20140;-69
2021/12/31 02:50:03;;;;;;;5.97;2.78;;;;;;;3.15;79.73;93610.34;2075757;69;20291;-68
2021/12/31 02:52:28;;;;;;;6.30;3.10;;;;;;;3.31;77.93;93612.00;2075575;69;20209;-70
2021/12/31 02:54:56;;;;;;;3.72;2.53;;;;;;;3.32;77.51;93607.19;2075815;69;20175;-69
2021/12/31 02:57:22;;;;;;;6.20;3.30;;;;;;;3.27;78.57;93606.03;2075883;69;20182;-70
2021/12/31 02:59:48;;;;;;;6.10;3.00;;;;;;;3.33;77.71;93600.31;2075671;69;20136;-71
2021/12/31 03:02:15;;;;;;;3.85;2.90;;;;;;;3.19;77.99;93604.44;2075172;69;20222;-74
2021/12/31 03:04:42;;;;;;;6.00;2.83;;;;;;;3.38;77.64;93601.47;2075000;69;20615;-70
2021/12/31 03:07:11;;;;;;;3.42;2.60;;;;;;;3.41;76.87;93594.81;2071375;69;20147;-70
2021/12/31 03:09:43;;;;;;;7.97;4.00;;;;;;;2.86;78.75;93611.50;2075373;69;20264;-70
2021/12/31 03:12:10;;;;;;;7.18;4.15;;;;;;;2.99;77.90;93611.47;2075785;69;20229;-71
2021/12/31 03:14:40;;;;;;;7.28;5.30;;;;;;;3.08;77.58;93619.38;2075380;69;20144;-69
2021/12/31 03:17:07;;;;;;;12.35;9.00;;;;;;;2.95;78.22;93630.53;2075211;69;20151;-70
2021/12/31 03:19:32;;;;;;;22.80;9.25;;;;;;;2.87;78.29;93621.34;2075270;69;20250;-69
2021/12/31 03:21:59;;;;;;;13.57;9.00;;;;;;;2.88;77.98;93628.41;2075911;69;20191;-77
2021/12/31 03:24:25;;;;;;;12.50;8.75;;;;;;;2.97;78.22;93617.56;2074514;69;20187;-76
2021/12/31 03:26:50;;;;;;;11.45;8.45;;;;;;;2.88;76.80;93617.25;2075179;69;20180;-71
2021/12/31 03:29:16;;;;;;;14.32;7.68;;;;;;;2.88;77.43;93620.03;2074588;69;20151;-76
2021/12/31 03:31:41;;;;;;;112.25;9.10;;;;;;;2.92;77.55;93615.66;2074366;69;20172;-71
2021/12/31 03:34:10;;;;;;;22.35;8.40;;;;;;;2.83;77.52;93616.09;2071412;69;20510;-74
2021/12/31 03:36:37;;;;;;;19.17;7.25;;;;;;;2.57;77.92;93613.38;2071818;69;20526;-72
2021/12/31 03:39:03;;;;;;;43.17;7.10;;;;;;;2.79;78.02;93621.25;2075120;69;20152;-72
2021/12/31 03:41:29;;;;;;;51.90;7.78;;;;;;;2.72;77.42;93622.66;2075177;69;20147;-73
2021/12/31 03:43:55;;;;;;;11.40;7.40;;;;;;;2.69;78.08;93626.50;2075247;69;20143;-71
2021/12/31 03:46:22;;;;;;;44.75;8.13;;;;;;;2.42;79.31;93625.78;2074707;69;20152;-72
2021/12/31 03:48:47;;;;;;;12.25;6.90;;;;;;;2.51;77.99;93619.78;2075129;69;20152;-72
2021/12/31 03:51:13;;;;;;;95.10;7.70;;;;;;;2.30;79.13;93630.09;2074574;69;20487;-69
2021/12/31 03:53:39;;;;;;;40.78;7.22;;;;;;;2.46;78.30;93617.13;2075272;69;20483;-70
2021/12/31 03:56:05;;;;;;;43.97;7.18;;;;;;;2.70;77.97;93616.91;2075434;69;20151;-77
2021/12/31 03:58:30;;;;;;;15.98;7.10;;;;;;;2.66;77.40;93602.56;2075409;69;20241;-74
2021/12/31 04:00:56;;;;;;;93.50;8.27;;;;;;;2.17;78.24;93619.72;2075514;69;20144;-77
2021/12/31 04:03:22;;;;;;;66.43;8.50;;;;;;;2.09;79.41;93616.06;2075146;69;20163;-79
2021/12/31 04:05:49;;;;;;;42.97;7.60;;;;;;;2.23;78.38;93614.03;2075152;69;20136;-74
2021/12/31 04:08:15;;;;;;;31.52;7.25;;;;;;;2.43;78.04;93612.63;2075317;69;20195;-73
2021/12/31 04:10:42;;;;;;;18.67;7.18;;;;;;;2.34;77.40;93607.50;2075214;69;20183;-72
2021/12/31 04:13:09;;;;;;;127.50;9.63;;;;;;;2.21;77.79;93609.03;2075255;69;20132;-73
2021/12/31 04:15:35;;;;;;;24.95;7.05;;;;;;;2.20;77.71;93615.09;2075249;69;20159;-69
2021/12/31 04:18:00;;;;;;;11.30;7.05;;;;;;;2.38;77.65;93608.69;2071869;69;20152;-70
2021/12/31 04:21:01;;;;;;;39.90;7.03;;;;;;;2.19;78.35;93622.69;2075122;69;20152;-70
2021/12/31 04:25:54;;;;;;;10.30;6.70;;;;;;;2.19;77.00;93611.56;2075226;69;20136;-69
2021/12/31 04:28:19;;;;;;;27.05;9.45;;;;;;;2.26;77.79;93615.75;2071958;69;20277;-70
2021/12/31 04:30:45;;;;;;;14.10;8.63;;;;;;;2.18;77.60;93621.19;2071761;69;20148;-70
2021/12/31 04:33:10;;;;;;;50.03;10.38;;;;;;;2.07;77.81;93613.09;2075280;69;20241;-71
2021/12/31 04:35:36;;;;;;;39.53;13.18;;;;;;;2.07;78.54;93615.13;2074836;69;20704;-71
2021/12/31 04:38:02;;;;;;;19.65;10.23;;;;;;;2.07;78.33;93615.88;2075132;69;20686;-71
2021/12/31 04:40:27;;;;;;;14.85;8.73;;;;;;;2.13;77.46;93607.41;2075131;69;20132;-77
2021/12/31 04:42:53;;;;;;;13.18;8.88;;;;;;;2.04;77.46;93611.38;2075119;69;20155;-77
2021/12/31 04:45:19;;;;;;;11.63;7.82;;;;;;;1.97;76.97;93604.44;2071787;69;20583;-76
2021/12/31 04:47:45;;;;;;;11.50;7.85;;;;;;;1.95;77.41;93606.97;2075193;69;20156;-73
2021/12/31 04:50:11;;;;;;;11.48;7.53;;;;;;;2.12;77.20;93608.72;2075040;69;20154;-74
2021/12/31 04:52:37;;;;;;;15.23;9.38;;;;;;;1.90;77.66;93613.38;2075318;69;20148;-70
2021/12/31 04:55:03;;;;;;;16.05;9.75;;;;;;;1.76;77.30;93609.84;2075104;69;20148;-70
2021/12/31 04:57:29;;;;;;;13.80;8.88;;;;;;;2.07;77.46;93606.78;2075072;69;20590;-70
2021/12/31 04:59:55;;;;;;;15.02;9.68;;;;;;;1.77;77.85;93608.56;2075045;69;20201;-69
2021/12/31 05:02:20;;;;;;;14.25;8.40;;;;;;;1.75;77.69;93602.06;2075238;69;20152;-70
2021/12/31 05:04:46;;;;;;;13.10;8.45;;;;;;;1.99;77.20;93601.13;2075045;69;20160;-71
2021/12/31 05:07:12;;;;;;;13.00;8.70;;;;;;;2.01;76.26;93609.66;2075170;69;20689;-70
2021/12/31 05:09:38;;;;;;;10.75;7.55;;;;;;;1.93;76.63;93617.13;2075137;69;20148;-78
2021/12/31 05:12:05;;;;;;;13.38;8.65;;;;;;;1.94;76.41;93608.28;2075211;69;20162;-74
2021/12/31 05:14:31;;;;;;;7.75;5.22;;;;;;;2.11;77.04;93618.31;2075098;69;20285;-77
2021/12/31 05:16:58;;;;;;;13.23;8.85;;;;;;;1.92;77.21;93610.06;2071723;69;20140;-74
2021/12/31 05:19:26;;;;;;;14.45;8.50;;;;;;;1.89;76.57;93606.34;2074899;69;20250;-77
2021/12/31 05:21:52;;;;;;;14.63;8.85;;;;;;;1.90;76.54;93612.63;2075218;69;20151;-74
2021/12/31 05:24:18;;;;;;;13.82;9.23;;;;;;;1.71;77.33;93601.63;2075153;69;20340;-73
2021/12/31 05:26:44;;;;;;;12.13;8.30;;;;;;;1.84;77.00;93607.19;2075040;69;20196;-70
2021/12/31 05:29:10;;;;;;;11.43;7.05;;;;;;;2.01;76.83;93615.94;2075076;69;20590;-72
2021/12/31 05:31:35;;;;;;;10.70;6.85;;;;;;;2.02;76.31;93609.13;2075088;69;20156;-71
2021/12/31 05:34:02;;;;;;;13.35;7.75;;;;;;;1.82;77.34;93612.50;2075199;69;20136;-71
2021/12/31 05:36:27;;;;;;;14.18;7.90;;;;;;;1.90;76.97;93609.88;2074952;69;20140;-70
2021/12/31 05:38:53;;;;;;;11.77;7.10;;;;;;;1.91;76.92;93612.09;2075123;69;20147;-70
2021/12/31 05:41:18;;;;;;;89.95;34.47;;;;;;;1.85;76.66;93614.25;2075053;69;20197;-78
2021/12/31 05:43:44;;;;;;;69.72;29.85;;;;;;;1.85;77.77;93630.16;2075077;69;20669;-75
2021/12/31 05:46:10;;;;;;;24.75;12.70;;;;;;;1.65;77.08;93626.72;2074965;69;20237;-73
2021/12/31 05:48:35;;;;;;;13.65;8.00;;;;;;;1.88;77.46;93617.97;2075175;69;20151;-74
2021/12/31 05:51:01;;;;;;;12.45;7.18;;;;;;;1.84;77.53;93621.09;2075051;69;20143;-73
2021/12/31 05:53:27;;;;;;;27.90;13.52;;;;;;;1.88;77.16;93623.53;2075027;69;20188;-71
2021/12/31 05:55:52;;;;;;;19.85;10.68;;;;;;;1.89;76.59;93611.91;2071555;69;20589;-70
2021/12/31 05:58:18;;;;;;;21.63;10.65;;;;;;;1.94;77.60;93624.94;2071667;69;20148;-71
2021/12/31 06:00:43;;;;;;;19.10;11.05;;;;;;;1.99;77.16;93626.84;2075011;69;20228;-70
2021/12/31 06:03:09;;;;;;;17.75;9.38;;;;;;;2.12;76.06;93622.59;2075093;69;20510;-71
2021/12/31 06:05:36;;;;;;;17.40;10.70;;;;;;;1.78;77.73;93620.41;2071498;69;20336;-69
2021/12/31 06:08:01;;;;;;;23.50;12.40;;;;;;;1.91;77.78;93619.69;2075172;69;20140;-70
2021/12/31 06:10:27;;;;;;;21.27;12.18;;;;;;;1.87;77.56;93616.47;2074949;69;20276;-75
2021/12/31 06:12:57;;;;;;;27.13;15.07;;;;;;;1.71;78.13;93623.84;2075013;69;20172;-75
2021/12/31 06:15:25;;;;;;;22.30;12.05;;;;;;;1.83;76.83;93613.25;2074997;69;20282;-80
2021/12/31 06:17:51;;;;;;;18.05;11.07;;;;;;;1.82;76.49;93603.44;2074937;69;20135;-76
2021/12/31 06:20:18;;;;;;;16.70;9.80;;;;;;;1.93;77.77;93609.56;2074857;69;20166;-73
2021/12/31 06:22:44;;;;;;;16.25;9.25;;;;;;;2.02;76.57;93611.16;2074972;69;20633;-75
2021/12/31 06:25:10;;;;;;;10.90;6.05;;;;;;;2.11;76.88;93605.19;2074875;69;20235;-76
2021/12/31 06:27:35;;;;;;;8.85;5.28;;;;;;;2.03;77.15;93607.84;2074905;69;20140;-77
2021/12/31 06:30:03;;;;;;;13.05;7.25;;;;;;;2.13;76.43;93630.38;2074887;69;20132;-73
2021/12/31 06:32:29;;;;;;;11.52;7.18;;;;;;;2.02;76.44;93619.50;2074958;69;20144;-70
2021/12/31 06:34:54;;;;;;;19.77;10.73;;;;;;;2.00;76.22;93627.59;2074654;69;20179;-69
2021/12/31 06:37:20;;;;;;;25.73;13.30;;;;;;;1.80;77.64;93625.44;2071523;69;20535;-70
2021/12/31 06:39:46;;;;;;;26.63;12.82;;;;;;;1.92;76.79;93632.28;2074996;69;20240;-70
2021/12/31 06:42:12;;;;;;;20.50;11.25;;;;;;;2.00;76.67;93631.13;2075204;69;20148;-76
2021/12/31 06:44:39;;;;;;;15.20;8.98;;;;;;;2.16;76.41;93625.81;2078303;69;20209;-73
2021/12/31 06:47:05;;;;;;;14.23;7.68;;;;;;;2.23;77.48;93619.59;2078253;69;20159;-76
2021/12/31 06:49:32;;;;;;;20.05;9.80;;;;;;;2.27;77.44;93622.81;2078107;69;20162;-73
2021/12/31 06:51:57;;;;;;;29.50;13.00;;;;;;;2.16;77.32;93623.03;2078334;69;20171;-71
2021/12/31 06:54:23;;;;;;;36.58;18.27;;;;;;;1.86;78.21;93615.72;2078379;69;20179;-73
2021/12/31 06:56:48;;;;;;;31.42;15.73;;;;;;;2.04;77.88;93616.94;2074856;69;20139;-69
2021/12/31 06:59:15;;;;;;;25.13;12.82;;;;;;;1.90;78.83;93626.53;2078708;69;20198;-71
2021/12/31 07:01:40;;;;;;;21.00;12.20;;;;;;;2.06;77.74;93614.34;2078829;69;20146;-72
2021/12/31 07:04:06;;;;;;;23.67;12.05;;;;;;;2.10;76.77;93617.56;2078668;69;20148;-71
2021/12/31 07:06:31;;;;;;;20.17;9.95;;;;;;;2.15;77.61;93627.06;2078677;69;20151;-77
2021/12/31 07:08:57;;;;;;;19.65;11.15;;;;;;;2.16;77.06;93623.78;2078753;69;20145;-69
2021/12/31 07:11:23;;;;;;;27.33;14.55;;;;;;;2.12;77.29;93622.59;2078747;69;20594;-68
2021/12/31 07:13:49;;;;;;;25.52;13.32;;;;;;;1.94;78.08;93624.19;2078692;69;20155;-70
2021/12/31 07:16:15;;;;;;;18.67;9.75;;;;;;;2.00;77.76;93617.22;2078676;69;20150;-70
2021/12/31 07:18:40;;;;;;;24.20;13.65;;;;;;;2.21;77.23;93613.84;2078725;69;20140;-76
2021/12/31 07:21:06;;;;;;;27.35;15.38;;;;;;;2.04;78.35;93622.47;2078638;69;20540;-71
2021/12/31 07:23:31;;;;;;;22.85;14.20;;;;;;;2.22;77.15;93621.63;2075379;69;20177;-77
2021/12/31 07:25:57;;;;;;;16.15;9.85;;;;;;;2.20;76.85;93615.09;2078792;69;20601;-71
2021/12/31 07:28:22;;;;;;;14.23;8.20;;;;;;;2.21;76.79;93614.59;2078692;69;20574;-69
2021/12/31 07:30:49;;;;;;;15.82;7.82;;;;;;;2.30;76.78;93616.19;2078636;69;20135;-73
2021/12/31 07:33:18;;;;;;;15.82;8.55;;;;;;;2.19;77.85;93622.69;2078628;69;20226;-69
2021/12/31 07:35:44;;;;;;;29.27;17.05;;;;;;;1.72;79.37;93626.06;2075334;69;20148;-72
2021/12/31 07:38:18;;;;;;;26.05;15.25;;;;;;;1.94;78.08;93626.97;2073435;69;20152;-71
2021/12/31 07:40:44;;;;;;;23.15;12.60;;;;;;;2.06;77.83;93624.72;2073976;69;20236;-70
2021/12/31 07:43:12;;;;;;;20.83;12.45;;;;;;;1.98;77.83;93630.91;2075314;69;20148;-69
2021/12/31 07:45:38;;;;;;;26.67;17.75;;;;;;;2.18;77.30;93626.00;2075330;69;20140;-70
2021/12/31 07:48:04;;;;;;;21.70;11.68;;;;;;;2.12;77.39;93633.72;2074211;69;20191;-73
2021/12/31 07:50:31;;;;;;;15.00;9.25;;;;;;;2.24;76.73;93632.94;2071761;69;20654;-76
2021/12/31 07:52:57;;;;;;;12.32;7.05;;;;;;;2.32;77.09;93638.63;2072011;69;20159;-77
2021/12/31 07:55:23;;;;;;;25.45;14.45;;;;;;;1.75;78.50;93652.03;2071853;69;20151;-78
2021/12/31 07:57:48;;;;;;;22.17;13.20;;;;;;;1.97;78.45;93646.09;2071816;69;20140;-77
2021/12/31 08:00:14;;;;;;;20.42;12.52;;;;;;;2.10;77.85;93644.59;2071899;69;20630;-75
2021/12/31 08:02:40;;;;;;;20.05;11.88;;;;;;;2.17;77.16;93633.59;2071965;69;20152;-73
2021/12/31 08:05:06;;;;;;;18.38;10.65;;;;;;;2.23;77.29;93634.22;2071692;69;20593;-74
2021/12/31 08:07:32;;;;;;;17.63;10.63;;;;;;;2.27;77.76;93626.31;2073201;69;20209;-73
2021/12/31 08:09:58;;;;;;;15.40;8.93;;;;;;;2.44;77.57;93620.44;2072995;69;20176;-73
2021/12/31 08:12:23;;;;;;;17.83;10.95;;;;;;;2.46;78.19;93626.22;2069553;69;20128;-73
2021/12/31 08:14:49;;;;;;;24.75;15.05;;;;;;;2.56;77.63;93632.06;2071824;69;20247;-71
2021/12/31 08:17:15;;;;;;;18.52;11.88;;;;;;;2.62;77.73;93632.72;2071825;69;20147;-69
2021/12/31 08:19:41;;;;;;;14.20;8.88;;;;;;;2.37;78.83;93643.31;2071734;69;20172;-74
2021/12/31 08:22:08;;;;;;;15.63;10.35;;;;;;;2.44;78.79;93645.47;2071824;69;20150;-72
2021/12/31 08:24:33;;;;;;;25.15;16.10;;;;;;;2.40;78.24;93656.16;2071830;69;20151;-73
2021/12/31 08:26:59;;;;;;;24.25;16.30;;;;;;;2.43;77.89;93652.31;2068467;69;20156;-76
2021/12/31 08:29:25;;;;;;;26.25;16.83;;;;;;;2.37;77.91;93654.44;2071860;69;20680;-73
2021/12/31 08:31:50;;;;;;;28.50;16.80;;;;;;;2.42;78.01;93647.28;2068315;69;20614;-70
2021/12/31 08:34:16;;;;;;;26.30;14.90;;;;;;;2.49;77.59;93647.38;2071667;69;20153;-71
2021/12/31 08:36:41;;;;;;;31.42;17.15;;;;;;;2.50;76.81;93634.22;2071794;69;20168;-72
2021/12/31 08:39:11;;;;;;;41.75;27.63;;;;;;;2.23;78.09;93639.78;2071793;69;20144;-72
2021/12/31 08:41:39;;;;;;;38.80;22.38;;;;;;;2.36;77.69;93641.09;2068550;69;20206;-70
2021/12/31 08:44:06;;;;;;;31.13;19.98;;;;;;;2.37;77.96;93637.75;2071837;69;20163;-69
2021/12/31 08:46:33;;;;;;;36.42;23.27;;;;;;;2.44;77.96;93639.16;2071815;69;20144;-71
2021/12/31 08:48:59;;;;;;;36.40;21.23;;;;;;;2.22;79.25;93643.84;2071755;69;20164;-71
2021/12/31 08:51:25;;;;;;;32.15;20.17;;;;;;;2.46;78.43;93639.38;2071836;69;20263;-75
2021/12/31 08:53:52;;;;;;;37.08;24.30;;;;;;;2.54;78.14;93637.44;2071662;69;20212;-76
2021/12/31 08:56:18;;;;;;;49.65;33.00;;;;;;;2.80;78.10;93629.06;2071703;69;20149;-73
2021/12/31 08:58:44;;;;;;;51.85;32.15;;;;;;;3.08;79.53;93632.53;2071748;69;20171;-74
2021/12/31 09:01:09;;;;;;;41.88;25.75;;;;;;;3.34;78.54;93631.66;2071714;69;20148;-70
2021/12/31 09:03:35;;;;;;;47.08;28.88;;;;;;;3.57;79.15;93632.63;2071550;69;20156;-71
2021/12/31 09:06:01;;;;;;;46.15;29.80;;;;;;;3.91;76.80;93627.00;2071445;69;20233;-72
2021/12/31 09:08:26;;;;;;;50.28;31.42;;;;;;;4.26;79.42;93624.81;2071702;69;20595;-72
2021/12/31 09:10:52;;;;;;;55.15;33.70;;;;;;;4.42;79.30;93622.88;2071711;69;20135;-72
2021/12/31 09:13:18;;;;;;;40.55;26.45;;;;;;;4.76;77.84;93629.00;2068513;69;20148;-72
2021/12/31 09:15:44;;;;;;;37.50;19.92;;;;;;;4.94;80.22;93632.06;2071731;69;20618;-72
2021/12/31 09:18:10;;;;;;;32.45;19.75;;;;;;;4.73;77.79;93632.91;2071842;69;20151;-74
2021/12/31 09:20:35;;;;;;;31.30;18.65;;;;;;;5.29;77.46;93633.31;2071589;69;20246;-70
2021/12/31 09:23:02;;;;;;;34.95;18.83;;;;;;;5.38;78.73;93641.16;2071674;69;20148;-73
2021/12/31 09:25:28;;;;;;;28.55;16.73;;;;;;;5.60;75.96;93646.06;2068323;69;20510;-75
2021/12/31 09:27:54;;;;;;;31.02;17.23;;;;;;;5.98;75.75;93644.63;2068230;69;20622;-76
2021/12/31 09:30:19;;;;;;;30.38;16.85;;;;;;;6.20;74.57;93638.31;2071791;69;20151;-73
2021/12/31 09:32:45;;;;;;;31.33;17.75;;;;;;;6.67;76.13;93631.31;2071708;69;20152;-77
2021/12/31 09:35:11;;;;;;;24.85;14.95;;;;;;;6.94;76.92;93642.09;2071472;69;20599;-71
2021/12/31 09:37:37;;;;;;;29.65;15.32;;;;;;;7.07;73.72;93630.66;2071667;69;20151;-70
2021/12/31 09:40:03;;;;;;;26.95;15.13;;;;;;;7.12;72.07;93635.31;2071464;69;20251;-72
2021/12/31 09:42:29;;;;;;;28.65;14.75;;;;;;;7.30;72.63;93627.75;2071744;69;20613;-74
2021/12/31 09:44:54;;;;;;;25.27;14.30;;;;;;;7.90;72.77;93625.91;2071603;69;20166;-72
2021/12/31 09:47:20;;;;;;;26.00;13.77;;;;;;;8.39;72.33;93618.81;2071646;69;20219;-73
2021/12/31 09:49:48;;;;;;;16.45;8.45;;;;;;;7.32;69.02;93623.06;2071447;69;20249;-70
2021/12/31 09:52:14;;;;;;;17.23;10.05;;;;;;;7.44;70.69;93611.44;2071618;69;20591;-70
2021/12/31 09:54:42;;;;;;;15.50;9.73;;;;;;;7.99;69.29;93621.72;2071895;69;20154;-76
2021/12/31 09:57:12;;;;;;;17.45;12.00;;;;;;;8.08;67.79;93619.03;2071555;69;20152;-74
2021/12/31 09:59:40;;;;;;;11.25;7.55;;;;;;;8.41;67.47;93613.38;2071565;69;20140;-74
2021/12/31 10:02:06;;;;;;;11.80;7.50;;;;;;;8.81;66.85;93618.78;2071643;69;20150;-73
2021/12/31 10:04:57;;;;;;;14.05;9.52;;;;;;;9.04;66.51;93609.34;2071497;69;20175;-73
2021/12/31 10:07:24;;;;;;;11.77;9.05;;;;;;;8.89;64.83;93613.09;2071629;69;20248;-72
2021/12/31 10:10:11;;;;;;;10.45;6.90;;;;;;;9.41;65.31;93616.56;2071531;69;20152;-74
2021/12/31 10:12:49;;;;;;;10.40;5.97;;;;;;;9.52;64.10;93604.06;2071550;69;20137;-72
2021/12/31 10:15:17;;;;;;;5.30;3.45;;;;;;;9.24;64.83;93599.00;2071530;69;20167;-71
2021/12/31 10:17:43;;;;;;;13.55;10.15;;;;;;;9.77;63.34;93603.91;2071526;69;20220;-73
2021/12/31 10:20:09;;;;;;;5.72;3.88;;;;;;;10.24;62.35;93607.53;2071484;69;20152;-72
2021/12/31 10:22:35;;;;;;;9.45;6.13;;;;;;;10.84;60.91;93598.63;2071618;69;20575;-72
2021/12/31 10:25:01;;;;;;;8.82;5.90;;;;;;;11.48;60.22;93595.47;2071689;69;20183;-72
2021/12/31 10:27:28;;;;;;;7.05;5.63;;;;;;;11.69;60.95;93593.50;2071601;69;20148;-72
2021/12/31 10:29:53;;;;;;;5.47;4.07;;;;;;;11.82;58.35;93595.16;2071552;69;20568;-77
2021/12/31 10:32:21;;;;;;;7.57;4.90;;;;;;;11.60;57.91;93599.91;2071851;69;20143;-72
2021/12/31 10:34:46;;;;;;;5.85;3.88;;;;;;;12.13;57.94;93595.16;2071915;69;20582;-72
2021/12/31 10:37:23;;;;;;;8.20;4.60;;;;;;;12.97;56.05;93593.06;2072309;69;20227;-72
2021/12/31 10:40:00;;;;;;;5.72;4.40;;;;;;;11.16;55.92;93600.25;2072038;69;20149;-72
2021/12/31 10:42:31;;;;;;;7.05;3.92;;;;;;;12.36;56.53;93602.34;2072070;69;20140;-73
2021/12/31 10:44:57;;;;;;;6.75;4.72;;;;;;;13.26;54.07;93585.75;2072078;69;20152;-73
2021/12/31 10:47:28;;;;;;;6.28;4.53;;;;;;;12.49;53.57;93582.06;2072044;69;20155;-78
2021/12/31 10:50:02;;;;;;;6.90;3.80;;;;;;;13.53;52.36;93585.34;2071888;69;20163;-74
2021/12/31 10:53:07;;;;;;;6.00;3.40;;;;;;;13.58;51.89;93581.44;2072029;69;20152;-75
2021/12/31 10:55:34;;;;;;;4.70;3.20;;;;;;;15.13;50.69;93566.06;2071516;69;20171;-73
2021/12/31 10:58:03;;;;;;;3.67;2.97;;;;;;;14.78;48.56;93565.41;2071961;69;20144;-72
2021/12/31 11:00:35;;;;;;;4.28;3.33;;;;;;;15.27;49.21;93560.47;2072029;69;20146;-70
2021/12/31 11:03:01;;;;;;;5.40;3.35;;;;;;;16.27;46.62;93560.31;2071919;69;20172;-73
2021/12/31 11:05:28;;;;;;;5.47;4.05;;;;;;;17.35;44.60;93554.47;2071922;69;20206;-74
2021/12/31 11:07:57;;;;;;;4.78;3.90;;;;;;;18.77;41.55;93551.09;2072134;69;20568;-74
2021/12/31 11:10:27;;;;;;;5.47;3.70;;;;;;;18.36;40.56;93551.38;2071975;69;20144;-72
2021/12/31 11:12:54;;;;;;;4.35;3.28;;;;;;;18.35;39.31;93547.06;2065767;69;20144;-71
2021/12/31 11:15:20;;;;;;;6.30;4.90;;;;;;;16.88;39.96;93545.69;2071906;69;20659;-73
2021/12/31 11:17:53;;;;;;;5.85;4.03;;;;;;;15.16;43.02;93550.63;2071976;69;20626;-75
2021/12/31 11:20:23;;;;;;;5.15;3.60;;;;;;;14.57;44.19;93552.88;2071867;69;20140;-74
2021/12/31 11:22:49;;;;;;;5.55;3.75;;;;;;;14.34;45.59;93542.28;2071885;69;20132;-73
2021/12/31 11:25:24;;;;;;;4.88;3.67;;;;;;;13.56;47.52;93536.78;2071937;69;20174;-74
2021/12/31 11:27:51;;;;;;;5.20;3.70;;;;;;;13.19;47.34;93528.00;2071914;69;20736;-73
2021/12/31 11:30:31;;;;;;;5.40;4.00;;;;;;;12.46;48.83;93519.06;2068584;69;20156;-73
2021/12/31 11:33:20;;;;;;;5.38;4.15;;;;;;;11.73;51.00;93508.44;2071988;69;20137;-77
2021/12/31 11:36:05;;;;;;;7.03;4.75;;;;;;;11.47;52.32;93506.59;2071514;69;20163;-76
2021/12/31 11:38:31;;;;;;;16.42;8.27;;;;;;;10.57;54.18;93514.25;2074350;69;20518;-75